Time;durP1;ratioP1;P1;durP2;ratioP2;P2;SDS_P1;SDS_P2;PMS_P1;PMS_P2;Temp;Humidity;BMP_temperature;BMP_pressure;BME280_temperature;BME280_humidity;BME280_pressure;Samples;Min_cycle;Max_cycle;Signal;HPM_P1;HPM_P2
2022/12/22 03:25:55;;;;;;;;;;;11.10;99.90;11.50;99612.00;;;;337577;28;82543;-95
2022/12/22 03:26:07;;;;;;;;;;;11.10;99.90;11.40;99609.00;;;;337222;28;82633;-95
2022/12/22 03:26:19;;;;;;;;;;;11.10;99.90;11.40;99605.00;;;;337047;28;84993;-95
2022/12/22 03:26:32;;;;;;;;;;;11.10;99.90;11.40;99611.00;;;;336486;28;83408;-96
2022/12/22 03:26:44;;;;;;;;;;;11.10;99.90;11.40;99606.00;;;;339128;28;84196;-96
2022/12/22 03:26:56;;;;;;;;;;;11.10;99.90;11.40;99607.00;;;;337784;28;83252;-95
2022/12/22 03:27:07;;;;;;;;;;;11.10;99.90;11.50;99607.00;;;;335058;28;83227;-95
2022/12/22 03:27:19;;;;;;;;;;;11.10;99.90;11.50;99611.00;;;;337860;28;83192;-96
2022/12/22 03:27:31;;;;;;;;;;;11.10;99.90;11.50;99605.00;;;;337828;28;82523;-94
2022/12/22 03:27:43;;;;;;;;;;;11.10;99.90;11.40;99598.00;;;;344836;28;82167;-95
2022/12/22 03:28:03;;;;;;;;;;;11.10;99.90;11.40;99603.00;;;;338904;28;86169;-96
2022/12/22 03:28:15;;;;;;;;;;;11.10;99.90;11.50;99604.00;;;;337922;28;82366;-96
2022/12/22 03:28:27;;;;;;;;;;;11.10;99.90;11.50;99601.00;;;;337564;28;85467;-95
2022/12/22 03:28:39;;;;;;;;;;;11.10;99.90;11.40;99593.00;;;;339084;28;83418;-95
2022/12/22 03:28:50;;;;;;;;;;;11.10;99.90;11.50;99601.00;;;;336439;28;85509;-96
2022/12/22 03:29:02;;;;;;;;;;;11.10;99.90;11.50;99592.00;;;;336536;28;83268;-95
2022/12/22 03:29:14;;;;;;;;;;;11.10;99.90;11.50;99595.00;;;;336124;28;86876;-95
2022/12/22 03:29:26;;;;;;;;;;;11.10;99.90;11.50;99591.00;;;;337903;28;83365;-95
2022/12/22 03:29:38;;;;;;;;;;;11.10;99.90;11.50;99600.00;;;;336432;28;84390;-96
2022/12/22 03:29:50;;;;;;;;;;;11.10;99.90;11.50;99595.00;;;;336531;28;83335;-95
2022/12/22 03:30:02;;;;;;;;;;;11.10;99.90;11.50;99597.00;;;;337584;28;84196;-96
2022/12/22 03:30:14;;;;;;;;;;;11.10;99.90;11.40;99586.00;;;;336529;28;82425;-95
2022/12/22 03:30:26;;;;;;;;;;;11.10;99.90;11.50;99583.00;;;;337623;28;85456;-94
2022/12/22 03:30:38;;;;;;;;;;;11.10;99.90;11.50;99589.00;;;;337580;28;83467;-94
2022/12/22 03:31:01;;;;;;;;;;;11.10;99.90;11.50;99591.00;;;;336451;28;84970;-95
2022/12/22 03:31:13;;;;;;;;;;;11.10;99.90;11.50;99590.00;;;;337709;28;82609;-96
2022/12/22 03:31:26;;;;;;;;;;;11.10;99.90;11.60;99585.00;;;;338362;28;83011;-96
2022/12/22 03:31:38;;;;;;;;;;;11.10;99.90;11.50;99594.00;;;;336513;28;83419;-95
2022/12/22 03:31:50;;;;;;;;;;;11.10;99.90;11.60;99585.00;;;;336910;28;84562;-95
2022/12/22 03:32:02;;;;;;;;;;;11.10;99.90;11.50;99590.00;;;;336485;28;83417;-95
2022/12/22 03:32:13;;;;;;;;;;;11.10;99.90;11.50;99585.00;;;;337693;28;85395;-96
2022/12/22 03:32:25;;;;;;;;;;;11.10;99.90;11.50;99584.00;;;;340283;28;83462;-95
2022/12/22 03:32:37;;;;;;;;;;;11.10;99.90;11.50;99587.00;;;;337800;28;87224;-95
2022/12/22 03:32:49;;;;;;;;;;;11.10;99.90;11.50;99584.00;;;;336549;28;83383;-95
2022/12/22 03:33:00;;;;;;;;;;;11.10;99.90;11.50;99585.00;;;;335236;29;82515;-95
2022/12/22 03:33:12;;;;;;;;;;;11.10;99.90;11.50;99586.00;;;;336458;28;83259;-94
2022/12/22 03:33:24;;;;;;;;;;;11.10;99.90;11.50;99588.00;;;;336581;28;83556;-95
2022/12/22 03:33:36;;;;;;;;;;;11.10;99.90;11.50;99587.00;;;;337657;28;83407;-95
2022/12/22 03:33:48;;;;;;;;;;;11.10;99.90;11.50;99592.00;;;;337729;28;85273;-95
2022/12/22 03:34:00;;;;;;;;;;;11.10;99.90;11.50;99589.00;;;;337298;28;83525;-96
2022/12/22 03:34:11;;;;;;;;;;;11.10;99.90;11.50;99586.00;;;;337637;28;85774;-95
2022/12/22 03:34:23;;;;;;;;;;;11.10;99.90;11.50;99586.00;;;;336648;28;82464;-94
2022/12/22 03:34:35;;;;;;;;;;;11.10;99.90;11.50;99588.00;;;;335071;29;84058;-96
2022/12/22 03:34:47;;;;;;;;;;;11.10;99.90;11.50;99586.00;;;;336539;28;83182;-96
2022/12/22 03:34:59;;;;;;;;;;;11.10;99.90;11.50;99591.00;;;;336455;28;84039;-95
2022/12/22 03:35:11;;;;;;;;;;;11.10;99.90;11.50;99593.00;;;;336150;28;83534;-94
2022/12/22 03:35:23;;;;;;;;;;;11.10;99.90;11.50;99583.00;;;;338241;28;84238;-95
2022/12/22 03:35:35;;;;;;;;;;;11.20;99.90;11.50;99591.00;;;;337370;28;82529;-95
2022/12/22 03:35:47;;;;;;;;;;;11.10;99.90;11.50;99596.00;;;;336356;28;86718;-95
2022/12/22 03:35:59;;;;;;;;;;;11.10;99.90;11.50;99592.00;;;;337706;28;83575;-95
2022/12/22 03:36:10;;;;;;;;;;;11.10;99.90;11.50;99588.00;;;;336208;28;87636;-96
2022/12/22 03:36:22;;;;;;;;;;;11.10;99.90;11.50;99597.00;;;;337608;28;82550;-96
2022/12/22 03:36:34;;;;;;;;;;;11.10;99.90;11.50;99598.00;;;;337544;28;85522;-96
2022/12/22 03:36:46;;;;;;;;;;;11.10;99.90;11.50;99600.00;;;;337916;28;83292;-95
2022/12/22 03:36:57;;;;;;;;;;;11.20;99.90;11.50;99606.00;;;;336019;28;84569;-96
2022/12/22 03:37:09;;;;;;;;;;;11.10;99.90;11.50;99598.00;;;;337863;28;82479;-95
2022/12/22 03:37:21;;;;;;;;;;;11.10;99.90;11.50;99600.00;;;;336380;28;87176;-95
2022/12/22 03:37:33;;;;;;;;;;;11.10;99.90;11.50;99591.00;;;;337738;28;82677;-95
2022/12/22 03:37:44;;;;;;;;;;;11.10;99.90;11.50;99595.00;;;;336527;28;83210;-95
2022/12/22 03:37:56;;;;;;;;;;;11.10;99.90;11.50;99594.00;;;;336547;28;83361;-96
2022/12/22 03:38:08;;;;;;;;;;;11.20;99.90;11.50;99594.00;;;;337083;28;83732;-96
2022/12/22 03:38:20;;;;;;;;;;;11.20;99.90;11.50;99592.00;;;;337871;28;82378;-96
2022/12/22 03:38:32;;;;;;;;;;;11.10;99.90;11.50;99600.00;;;;335057;28;85267;-96
2022/12/22 03:38:44;;;;;;;;;;;11.10;99.90;11.50;99591.00;;;;338904;28;83371;-96
2022/12/22 03:38:55;;;;;;;;;;;11.10;99.90;11.50;99594.00;;;;334862;29;85538;-96
2022/12/22 03:39:08;;;;;;;;;;;11.10;99.90;11.60;99598.00;;;;335187;29;82233;-95
2022/12/22 03:39:20;;;;;;;;;;;11.10;99.90;11.60;99602.00;;;;334878;29;86433;-96
2022/12/22 03:39:32;;;;;;;;;;;11.20;99.90;11.60;99592.00;;;;338887;28;83219;-95
2022/12/22 03:39:43;;;;;;;;;;;11.10;99.90;11.50;99603.00;;;;337800;28;83144;-94
2022/12/22 03:39:55;;;;;;;;;;;11.20;99.90;11.60;99597.00;;;;337591;28;82596;-96
2022/12/22 03:40:07;;;;;;;;;;;11.20;99.90;11.60;99598.00;;;;337662;28;84458;-95
2022/12/22 03:40:19;;;;;;;;;;;11.10;99.90;11.60;99592.00;;;;337552;28;83463;-96
2022/12/22 03:40:31;;;;;;;;;;;11.20;99.90;11.60;99594.00;;;;336318;28;85448;-95
2022/12/22 03:40:43;;;;;;;;;;;11.20;99.90;11.50;99592.00;;;;337588;28;83397;-95
2022/12/22 03:40:55;;;;;;;;;;;11.20;99.90;11.50;99603.00;;;;344311;28;86865;-95
2022/12/22 03:41:07;;;;;;;;;;;11.10;99.90;11.60;99595.00;;;;336461;28;83515;-95
2022/12/22 03:46:30;;;;;;;;;;;11.20;99.90;11.70;99604.00;;;;338580;28;86550;-96
2022/12/22 03:46:42;;;;;;;;;;;11.30;99.90;11.70;99604.00;;;;337722;28;83535;-96
2022/12/22 03:46:54;;;;;;;;;;;11.20;99.90;11.70;99599.00;;;;337726;28;85508;-94
2022/12/22 03:47:06;;;;;;;;;;;11.20;99.90;11.70;99607.00;;;;336305;28;83494;-95
2022/12/22 03:47:18;;;;;;;;;;;11.30;99.90;11.60;99607.00;;;;336390;28;83770;-95
2022/12/22 03:47:30;;;;;;;;;;;11.30;99.90;11.70;99607.00;;;;338883;28;82654;-95
2022/12/22 03:47:43;;;;;;;;;;;11.20;99.90;11.60;99611.00;;;;337610;28;85060;-95
2022/12/22 03:47:55;;;;;;;;;;;11.30;99.90;11.60;99610.00;;;;336467;29;83291;-95
2022/12/22 03:48:07;;;;;;;;;;;11.20;99.90;11.60;99607.00;;;;337498;28;84316;-94
2022/12/22 03:48:18;;;;;;;;;;;11.20;99.90;11.60;99604.00;;;;336447;28;82632;-95
2022/12/22 03:48:30;;;;;;;;;;;11.30;99.90;11.60;99606.00;;;;335048;29;83456;-94
2022/12/22 03:48:43;;;;;;;;;;;11.30;99.90;11.60;99608.00;;;;340470;28;83300;-95
2022/12/22 03:49:10;;;;;;;;;;;11.20;99.90;11.60;99606.00;;;;336327;28;86093;-95
2022/12/22 03:49:25;;;;;;;;;;;11.20;99.90;11.60;99605.00;;;;336283;28;82537;-95
2022/12/22 03:49:36;;;;;;;;;;;11.30;99.90;11.60;99608.00;;;;336297;29;83195;-95
2022/12/22 03:49:48;;;;;;;;;;;11.30;99.90;11.60;99607.00;;;;338964;28;83648;-95
2022/12/22 03:50:00;;;;;;;;;;;11.30;99.90;11.70;99601.00;;;;337730;28;86501;-96
2022/12/22 03:50:12;;;;;;;;;;;11.20;99.90;11.60;99603.00;;;;336502;28;83199;-95
2022/12/22 03:50:23;;;;;;;;;;;11.20;99.90;11.60;99613.00;;;;338905;28;86121;-94
2022/12/22 03:50:35;;;;;;;;;;;11.20;99.90;11.60;99612.00;;;;337501;28;83413;-96
2022/12/22 03:50:47;;;;;;;;;;;11.30;99.90;11.60;99602.00;;;;339016;28;86097;-95
2022/12/22 03:50:58;;;;;;;;;;;11.20;99.90;11.60;99600.00;;;;337908;28;83072;-95
2022/12/22 03:51:10;;;;;;;;;;;11.20;99.90;11.60;99605.00;;;;334843;28;85014;-95
2022/12/22 03:51:22;;;;;;;;;;;11.20;99.90;11.60;99607.00;;;;335053;29;83399;-95
2022/12/22 03:51:41;;;;;;;;;;;11.30;99.90;11.60;99605.00;;;;344276;28;86130;-94
2022/12/22 03:51:53;;;;;;;;;;;11.20;99.90;11.60;99600.00;;;;336481;29;83451;-95
2022/12/22 03:52:05;;;;;;;;;;;11.20;99.90;11.60;99605.00;;;;344626;28;84349;-95
2022/12/22 03:52:17;;;;;;;;;;;11.20;99.90;11.60;99608.00;;;;344834;28;83335;-95
2022/12/22 03:52:29;;;;;;;;;;;11.30;99.90;11.60;99600.00;;;;336372;28;86651;-95
2022/12/22 03:52:40;;;;;;;;;;;11.30;99.90;11.60;99596.00;;;;339179;28;82500;-94
2022/12/22 03:52:52;;;;;;;;;;;11.20;99.90;11.60;99603.00;;;;337687;28;87896;-95
2022/12/22 03:53:04;;;;;;;;;;;11.20;99.90;11.60;99606.00;;;;336412;29;83441;-95
2022/12/22 03:53:16;;;;;;;;;;;11.30;99.90;11.60;99609.00;;;;337730;28;87358;-94
2022/12/22 03:53:27;;;;;;;;;;;11.20;99.90;11.60;99603.00;;;;336528;29;83451;-94
2022/12/22 03:53:40;;;;;;;;;;;11.20;99.90;11.60;99597.00;;;;336400;28;84380;-95
2022/12/22 03:53:51;;;;;;;;;;;11.20;99.90;11.60;99604.00;;;;337669;28;83547;-95
2022/12/22 03:54:03;;;;;;;;;;;11.20;99.90;11.60;99613.00;;;;336384;28;84986;-96
2022/12/22 03:54:17;;;;;;;;;;;11.20;99.90;11.60;99602.00;;;;336566;28;82435;-96
2022/12/22 03:54:28;;;;;;;;;;;11.20;99.90;11.60;99607.00;;;;339086;28;84257;-94
2022/12/22 03:54:40;;;;;;;;;;;11.20;99.90;11.60;99602.00;;;;336455;28;82571;-95
2022/12/22 03:54:52;;;;;;;;;;;11.20;99.90;11.60;99606.00;;;;339059;28;86217;-95
2022/12/22 03:55:04;;;;;;;;;;;11.20;99.90;11.60;99608.00;;;;336319;29;83230;-95
2022/12/22 03:55:16;;;;;;;;;;;11.20;99.90;11.60;99605.00;;;;337683;28;85527;-95
2022/12/22 03:55:28;;;;;;;;;;;11.20;99.90;11.60;99602.00;;;;338883;28;83489;-95
2022/12/22 03:55:40;;;;;;;;;;;11.20;99.90;11.60;99608.00;;;;339035;28;84034;-95
2022/12/22 03:55:52;;;;;;;;;;;11.20;99.90;11.60;99609.00;;;;336543;28;82404;-95
2022/12/22 03:56:04;;;;;;;;;;;11.20;99.90;11.60;99602.00;;;;337807;28;83560;-95
2022/12/22 03:56:18;;;;;;;;;;;11.20;99.90;11.60;99609.00;;;;338965;28;82675;-95
2022/12/22 03:56:30;;;;;;;;;;;11.20;99.90;11.60;99610.00;;;;338862;28;87543;-95
2022/12/22 03:56:42;;;;;;;;;;;11.20;99.90;11.50;99603.00;;;;337853;28;82596;-95
2022/12/22 03:56:54;;;;;;;;;;;11.20;99.90;11.60;99608.00;;;;337783;28;85301;-96
2022/12/22 03:57:06;;;;;;;;;;;11.20;99.90;11.50;99605.00;;;;339073;28;83493;-95
2022/12/22 03:57:18;;;;;;;;;;;11.20;99.90;11.50;99604.00;;;;336157;28;85267;-96
2022/12/22 03:57:29;;;;;;;;;;;11.20;99.90;11.50;99604.00;;;;336393;28;82540;-95
2022/12/22 03:57:41;;;;;;;;;;;11.20;99.90;11.50;99600.00;;;;336371;29;85006;-95
2022/12/22 03:57:53;;;;;;;;;;;11.20;99.90;11.50;99596.00;;;;337635;28;82481;-95
2022/12/22 03:58:05;;;;;;;;;;;11.20;99.90;11.50;99609.00;;;;336467;28;84759;-96
2022/12/22 03:58:17;;;;;;;;;;;11.20;99.90;11.50;99598.00;;;;336662;28;82544;-95
2022/12/22 03:58:29;;;;;;;;;;;11.20;99.90;11.60;99594.00;;;;338954;28;83969;-95
2022/12/22 03:58:41;;;;;;;;;;;11.20;99.90;11.60;99599.00;;;;337644;28;82579;-96
2022/12/22 03:58:53;;;;;;;;;;;11.20;99.90;11.60;99599.00;;;;337794;28;85094;-95
2022/12/22 03:59:05;;;;;;;;;;;11.20;99.90;11.60;99592.00;;;;337696;28;82553;-95
2022/12/22 03:59:17;;;;;;;;;;;11.20;99.90;11.50;99594.00;;;;336300;28;85432;-95
2022/12/22 03:59:28;;;;;;;;;;;11.20;99.90;11.50;99595.00;;;;336561;29;83188;-95
2022/12/22 03:59:40;;;;;;;;;;;11.20;99.90;11.60;99595.00;;;;337519;28;86125;-96
2022/12/22 03:59:52;;;;;;;;;;;11.20;99.90;11.60;99599.00;;;;336570;28;84318;-96
2022/12/22 04:00:05;;;;;;;;;;;11.20;99.90;11.60;99595.00;;;;336345;28;87476;-95
2022/12/22 04:00:17;;;;;;;;;;;11.20;99.90;11.60;99590.00;;;;335285;29;82665;-94
2022/12/22 04:00:28;;;;;;;;;;;11.20;99.90;11.60;99589.00;;;;335007;28;86127;-95
2022/12/22 04:00:40;;;;;;;;;;;11.20;99.90;11.60;99598.00;;;;337708;28;83598;-96
2022/12/22 04:00:52;;;;;;;;;;;11.20;99.90;11.70;99593.00;;;;337709;28;84567;-95
2022/12/22 04:01:05;;;;;;;;;;;11.20;99.90;11.60;99588.00;;;;336193;28;82438;-94
2022/12/22 04:01:17;;;;;;;;;;;11.20;99.90;11.70;99594.00;;;;337877;28;83128;-95
2022/12/22 04:01:29;;;;;;;;;;;11.20;99.90;11.70;99595.00;;;;336268;28;83544;-96
2022/12/22 04:01:43;;;;;;;;;;;11.20;99.90;11.60;99584.00;;;;336260;28;86357;-95
2022/12/22 04:01:55;;;;;;;;;;;11.20;99.90;11.60;99592.00;;;;336584;28;82326;-95
2022/12/22 04:02:07;;;;;;;;;;;11.20;99.90;11.60;99593.00;;;;336340;28;86226;-95
2022/12/22 04:02:19;;;;;;;;;;;11.20;99.90;11.60;99589.00;;;;337916;28;82479;-95
2022/12/22 04:02:31;;;;;;;;;;;11.20;99.90;11.60;99589.00;;;;338843;28;86192;-95
2022/12/22 04:02:43;;;;;;;;;;;11.20;99.90;11.60;99594.00;;;;337827;28;82580;-96
2022/12/22 04:02:57;;;;;;;;;;;11.20;99.90;11.60;99585.00;;;;339226;28;82490;-95
2022/12/22 04:03:09;;;;;;;;;;;11.20;99.90;11.60;99593.00;;;;339213;28;83263;-95
2022/12/22 04:03:21;;;;;;;;;;;11.30;99.90;11.60;99590.00;;;;340247;28;87749;-95
2022/12/22 04:03:33;;;;;;;;;;;11.20;99.90;11.60;99589.00;;;;339238;28;82391;-95
2022/12/22 04:03:45;;;;;;;;;;;11.20;99.90;11.60;99588.00;;;;341597;28;85839;-95
2022/12/22 04:03:56;;;;;;;;;;;11.20;99.90;11.60;99590.00;;;;339117;28;83194;-95
2022/12/22 04:04:09;;;;;;;;;;;11.20;99.90;11.60;99596.00;;;;336524;28;84047;-95
2022/12/22 04:04:22;;;;;;;;;;;11.30;99.90;11.70;99591.00;;;;337672;28;82646;-95
2022/12/22 04:04:34;;;;;;;;;;;11.20;99.90;11.60;99586.00;;;;336528;28;84121;-95
2022/12/22 04:04:46;;;;;;;;;;;11.20;99.90;11.70;99594.00;;;;337995;28;82413;-95
2022/12/22 04:04:58;;;;;;;;;;;11.20;99.90;11.60;99584.00;;;;339507;28;85179;-95
2022/12/22 04:05:09;;;;;;;;;;;11.20;99.90;11.60;99590.00;;;;338044;28;82515;-95
2022/12/22 04:05:21;;;;;;;;;;;11.20;99.90;11.60;99584.00;;;;337874;28;84725;-95
2022/12/22 04:05:34;;;;;;;;;;;11.20;99.90;11.60;99582.00;;;;336803;28;82601;-95
2022/12/22 04:05:45;;;;;;;;;;;11.20;99.90;11.60;99593.00;;;;336501;28;86899;-96
2022/12/22 04:05:58;;;;;;;;;;;11.20;99.90;11.60;99588.00;;;;338223;28;83445;-95
2022/12/22 04:06:09;;;;;;;;;;;11.20;99.90;11.60;99585.00;;;;338073;28;86760;-95
2022/12/22 04:06:21;;;;;;;;;;;11.20;99.90;11.60;99585.00;;;;336929;28;83213;-95
2022/12/22 04:06:33;;;;;;;;;;;11.20;99.90;11.60;99586.00;;;;338120;28;83972;-94
2022/12/22 04:06:45;;;;;;;;;;;11.20;99.90;11.60;99586.00;;;;336576;28;83264;-95
2022/12/22 04:06:57;;;;;;;;;;;11.20;99.90;11.60;99584.00;;;;340646;28;84449;-95
2022/12/22 04:07:08;;;;;;;;;;;11.20;99.90;11.60;99596.00;;;;338977;28;82581;-95
2022/12/22 04:07:20;;;;;;;;;;;11.20;99.90;11.60;99586.00;;;;336761;28;83883;-95
2022/12/22 04:07:32;;;;;;;;;;;11.20;99.90;11.60;99593.00;;;;339420;28;83544;-94
2022/12/22 04:07:44;;;;;;;;;;;11.20;99.90;11.60;99585.00;;;;337731;28;85371;-93
2022/12/22 04:07:55;;;;;;;;;;;11.20;99.90;11.60;99591.00;;;;335343;29;82240;-95
2022/12/22 04:08:07;;;;;;;;;;;11.30;99.90;11.70;99587.00;;;;339209;28;84637;-94
2022/12/22 04:08:19;;;;;;;;;;;11.30;99.90;11.60;99595.00;;;;337915;28;82473;-95
2022/12/22 04:08:31;;;;;;;;;;;11.20;99.90;11.60;99594.00;;;;337281;28;86796;-95
2022/12/22 04:08:42;;;;;;;;;;;11.20;99.90;11.70;99591.00;;;;338909;28;83292;-95
2022/12/22 04:08:54;;;;;;;;;;;11.20;99.90;11.70;99594.00;;;;337708;28;86140;-95
2022/12/22 04:09:06;;;;;;;;;;;11.20;99.90;11.70;99593.00;;;;337665;28;83265;-94
2022/12/22 04:09:18;;;;;;;;;;;11.20;99.90;11.70;99591.00;;;;336466;28;85528;-95
2022/12/22 04:09:30;;;;;;;;;;;11.20;99.90;11.70;99593.00;;;;337944;28;83284;-96
2022/12/22 04:12:53;;;;;;;;;;;11.20;99.90;11.70;99594.00;;;;337800;28;82543;-94
2022/12/22 04:12:53;;;;;;;;;;;11.30;99.90;11.60;99614.00;;;;338554;28;83104;-94
2022/12/22 04:13:05;;;;;;;;;;;11.30;99.90;11.60;99615.00;;;;339176;28;83438;-95
2022/12/22 04:13:17;;;;;;;;;;;11.30;99.90;11.60;99604.00;;;;337461;28;87092;-96
2022/12/22 04:13:28;;;;;;;;;;;11.30;99.90;11.60;99616.00;;;;336397;28;83339;-94
2022/12/22 04:13:40;;;;;;;;;;;11.30;99.90;11.60;99612.00;;;;338818;28;84992;-96
2022/12/22 04:13:52;;;;;;;;;;;11.30;99.90;11.60;99609.00;;;;338987;28;83707;-96
2022/12/22 04:14:04;;;;;;;;;;;11.30;99.90;11.60;99604.00;;;;337826;28;82474;-95
2022/12/22 04:14:15;;;;;;;;;;;11.30;99.90;11.60;99608.00;;;;337702;28;83409;-94
2022/12/22 04:14:27;;;;;;;;;;;11.30;99.90;11.70;99609.00;;;;334665;29;84358;-95
2022/12/22 04:14:45;;;;;;;;;;;11.30;99.90;11.70;99609.00;;;;335134;29;82416;-95
2022/12/22 04:14:57;;;;;;;;;;;11.30;99.90;11.70;99608.00;;;;336289;28;86916;-95
2022/12/22 04:15:09;;;;;;;;;;;11.30;99.90;11.60;99608.00;;;;336244;28;82667;-96
2022/12/22 04:15:21;;;;;;;;;;;11.30;99.90;11.70;99610.00;;;;337787;28;82534;-95
2022/12/22 04:15:33;;;;;;;;;;;11.30;99.90;11.70;99608.00;;;;335209;29;82403;-95
2022/12/22 04:15:45;;;;;;;;;;;11.30;99.90;11.70;99599.00;;;;338636;28;86345;-95
2022/12/22 04:15:59;;;;;;;;;;;11.30;99.90;11.70;99605.00;;;;337785;28;83249;-95
2022/12/22 04:16:11;;;;;;;;;;;11.30;99.90;11.60;99602.00;;;;338737;28;86973;-95
2022/12/22 04:16:23;;;;;;;;;;;11.30;99.90;11.60;99604.00;;;;337596;28;83507;-96
2022/12/22 04:16:35;;;;;;;;;;;11.30;99.90;11.60;99605.00;;;;336400;28;85047;-95
2022/12/22 04:16:47;;;;;;;;;;;11.30;99.90;11.70;99603.00;;;;339156;28;82519;-95
2022/12/22 04:16:59;;;;;;;;;;;11.30;99.90;11.70;99600.00;;;;339087;28;84319;-95
2022/12/22 04:17:11;;;;;;;;;;;11.30;99.90;11.60;99601.00;;;;337790;28;82672;-95
2022/12/22 04:17:23;;;;;;;;;;;11.30;99.90;11.60;99604.00;;;;336431;28;86068;-95
2022/12/22 04:17:34;;;;;;;;;;;11.30;99.90;11.70;99602.00;;;;339061;28;83353;-95
2022/12/22 04:17:46;;;;;;;;;;;11.30;99.90;11.70;99599.00;;;;338840;28;84843;-95
2022/12/22 04:17:58;;;;;;;;;;;11.30;99.90;11.70;99607.00;;;;339230;28;82376;-96
2022/12/22 04:18:10;;;;;;;;;;;11.30;99.90;11.60;99610.00;;;;336462;28;83856;-95
2022/12/22 04:18:22;;;;;;;;;;;11.30;99.90;11.70;99613.00;;;;337815;28;82601;-95
2022/12/22 04:18:33;;;;;;;;;;;11.30;99.90;11.70;99605.00;;;;337524;28;85631;-95
2022/12/22 04:18:45;;;;;;;;;;;11.30;99.90;11.80;99614.00;;;;336461;28;83366;-94
2022/12/22 04:18:57;;;;;;;;;;;11.30;99.90;11.70;99609.00;;;;337634;28;87470;-94
2022/12/22 04:19:09;;;;;;;;;;;11.30;99.90;11.70;99616.00;;;;336396;28;83192;-95
2022/12/22 04:19:21;;;;;;;;;;;11.30;99.90;11.70;99605.00;;;;337435;28;87947;-96
2022/12/22 04:19:32;;;;;;;;;;;11.30;99.90;11.60;99608.00;;;;337730;28;83249;-95
2022/12/22 04:19:44;;;;;;;;;;;11.30;99.90;11.70;99604.00;;;;338928;28;83163;-95
2022/12/22 04:19:56;;;;;;;;;;;11.30;99.90;11.60;99604.00;;;;337673;28;83252;-95
2022/12/22 04:20:08;;;;;;;;;;;11.30;99.90;11.70;99610.00;;;;336175;28;84363;-96
2022/12/22 04:20:20;;;;;;;;;;;11.30;99.90;11.70;99608.00;;;;337819;28;83455;-95
2022/12/22 04:20:32;;;;;;;;;;;11.30;99.90;11.60;99602.00;;;;336362;28;83710;-95
2022/12/22 04:20:44;;;;;;;;;;;11.30;99.90;11.70;99609.00;;;;344608;28;83333;-96
2022/12/22 04:20:56;;;;;;;;;;;11.30;99.90;11.70;99597.00;;;;337614;28;83932;-94
2022/12/22 04:21:07;;;;;;;;;;;11.30;99.90;11.70;99602.00;;;;337546;28;82544;-95
2022/12/22 04:21:19;;;;;;;;;;;11.30;99.90;11.70;99602.00;;;;337493;28;86722;-95
2022/12/22 04:21:31;;;;;;;;;;;11.30;99.90;11.60;99605.00;;;;336312;28;83516;-96
2022/12/22 04:21:43;;;;;;;;;;;11.30;99.90;11.70;99607.00;;;;337649;28;84362;-96
2022/12/22 04:21:55;;;;;;;;;;;11.30;99.90;11.80;99604.00;;;;336468;28;82319;-96
2022/12/22 04:22:06;;;;;;;;;;;11.30;99.90;11.70;99603.00;;;;339039;28;85451;-95
2022/12/22 04:22:18;;;;;;;;;;;11.30;99.90;11.70;99614.00;;;;338949;28;82606;-95
2022/12/22 04:22:30;;;;;;;;;;;11.30;99.90;11.70;99611.00;;;;334717;29;82960;-95
2022/12/22 04:22:42;;;;;;;;;;;11.30;99.90;11.70;99608.00;;;;338888;28;82613;-95
2022/12/22 04:22:54;;;;;;;;;;;11.30;99.90;11.60;99602.00;;;;338977;28;87245;-95
2022/12/22 04:23:06;;;;;;;;;;;11.30;99.90;11.70;99598.00;;;;337585;28;82653;-96
2022/12/22 04:23:18;;;;;;;;;;;11.20;99.90;11.80;99606.00;;;;337144;28;83148;-95
2022/12/22 04:23:30;;;;;;;;;;;11.30;99.90;11.70;99605.00;;;;338899;28;83497;-96
2022/12/22 04:23:41;;;;;;;;;;;11.30;99.90;11.70;99606.00;;;;336367;28;83907;-95
2022/12/22 04:23:53;;;;;;;;;;;11.30;99.90;11.60;99608.00;;;;337768;28;82485;-95
2022/12/22 04:24:06;;;;;;;;;;;11.30;99.90;11.70;99605.00;;;;339305;28;83522;-95
2022/12/22 04:24:17;;;;;;;;;;;11.20;99.90;11.60;99611.00;;;;337648;28;82448;-95
2022/12/22 04:24:29;;;;;;;;;;;11.30;99.90;11.70;99615.00;;;;335089;29;84961;-94
2022/12/22 04:24:41;;;;;;;;;;;11.30;99.90;11.60;99614.00;;;;338995;28;83498;-94
2022/12/22 04:24:53;;;;;;;;;;;11.30;99.90;11.60;99611.00;;;;338480;28;84256;-96
2022/12/22 04:25:05;;;;;;;;;;;11.30;99.90;11.60;99608.00;;;;336325;28;83411;-94
2022/12/22 04:25:17;;;;;;;;;;;11.20;99.90;11.60;99609.00;;;;340558;28;84784;-95
2022/12/22 04:25:29;;;;;;;;;;;11.20;99.90;11.60;99614.00;;;;336496;28;83543;-95
2022/12/22 04:25:40;;;;;;;;;;;11.30;99.90;11.70;99606.00;;;;336369;28;83870;-95
2022/12/22 04:25:52;;;;;;;;;;;11.20;99.90;11.70;99614.00;;;;338976;28;82605;-95
2022/12/22 04:26:04;;;;;;;;;;;11.20;99.90;11.70;99623.00;;;;337663;28;86349;-95
2022/12/22 04:26:18;;;;;;;;;;;11.20;99.90;11.70;99608.00;;;;337913;28;83375;-96
2022/12/22 04:26:29;;;;;;;;;;;11.20;99.90;11.60;99618.00;;;;337446;28;86409;-95
2022/12/22 04:26:41;;;;;;;;;;;11.20;99.90;11.60;99621.00;;;;337866;28;83325;-95
2022/12/22 04:26:53;;;;;;;;;;;11.20;99.90;11.60;99611.00;;;;337628;28;85180;-95
2022/12/22 04:27:05;;;;;;;;;;;11.20;99.90;11.70;99615.00;;;;337471;28;82541;-95
2022/12/22 04:27:16;;;;;;;;;;;11.20;99.90;11.70;99611.00;;;;336473;28;82492;-94
2022/12/22 04:27:28;;;;;;;;;;;11.20;99.90;11.80;99613.00;;;;336171;28;82607;-96
2022/12/22 04:27:40;;;;;;;;;;;11.30;99.90;11.80;99608.00;;;;337472;28;87363;-94
2022/12/22 04:27:52;;;;;;;;;;;11.30;99.90;11.80;99620.00;;;;335159;29;83153;-95
2022/12/22 04:28:03;;;;;;;;;;;11.30;99.90;11.80;99620.00;;;;336244;28;84012;-95
2022/12/22 04:28:15;;;;;;;;;;;11.30;99.90;11.90;99613.00;;;;337617;28;82354;-95
2022/12/22 04:28:27;;;;;;;;;;;11.30;99.90;11.90;99620.00;;;;336328;29;86181;-95
2022/12/22 04:28:39;;;;;;;;;;;11.30;99.90;11.80;99612.00;;;;335171;29;83441;-94
2022/12/22 04:28:51;;;;;;;;;;;11.30;99.90;11.80;99617.00;;;;337477;28;87643;-94
2022/12/22 04:29:03;;;;;;;;;;;11.30;99.90;11.80;99609.00;;;;337779;28;83252;-95
2022/12/22 04:29:15;;;;;;;;;;;11.30;99.90;11.80;99615.00;;;;337515;28;84854;-95
2022/12/22 04:29:27;;;;;;;;;;;11.30;99.90;11.90;99611.00;;;;339176;28;83388;-95
2022/12/22 04:29:38;;;;;;;;;;;11.40;99.90;11.80;99614.00;;;;336401;28;85136;-95
2022/12/22 04:29:51;;;;;;;;;;;11.30;99.90;11.80;99613.00;;;;336345;29;83435;-95
2022/12/22 04:30:04;;;;;;;;;;;11.40;99.90;11.90;99617.00;;;;336282;29;85407;-95
2022/12/22 04:30:16;;;;;;;;;;;11.40;99.90;11.80;99611.00;;;;337402;28;83422;-96
2022/12/22 04:30:28;;;;;;;;;;;11.40;99.90;11.80;99608.00;;;;337679;28;84334;-95
2022/12/22 04:30:39;;;;;;;;;;;11.30;99.90;11.70;99614.00;;;;336451;28;83324;-96
2022/12/22 04:30:51;;;;;;;;;;;11.30;99.90;11.70;99613.00;;;;336385;29;84718;-95
2022/12/22 04:31:03;;;;;;;;;;;11.30;99.90;11.70;99615.00;;;;337655;28;82458;-94
2022/12/22 04:31:15;;;;;;;;;;;11.30;99.90;11.70;99617.00;;;;338913;28;85485;-96
2022/12/22 04:31:27;;;;;;;;;;;11.30;99.90;11.70;99617.00;;;;336112;29;83519;-95
2022/12/22 04:31:39;;;;;;;;;;;11.30;99.90;11.80;99615.00;;;;337448;28;86516;-95
2022/12/22 04:31:50;;;;;;;;;;;11.30;99.90;11.80;99622.00;;;;339027;28;83533;-95
2022/12/22 04:32:02;;;;;;;;;;;11.30;99.90;11.80;99623.00;;;;336415;28;85373;-95
2022/12/22 04:32:14;;;;;;;;;;;11.30;99.90;11.70;99623.00;;;;337610;28;83565;-94
2022/12/22 04:32:26;;;;;;;;;;;11.30;99.90;11.70;99615.00;;;;337680;28;82613;-95
2022/12/22 04:32:38;;;;;;;;;;;11.30;99.90;11.70;99621.00;;;;337823;28;82562;-95
2022/12/22 04:32:50;;;;;;;;;;;11.30;99.90;11.60;99617.00;;;;337933;28;84649;-95
2022/12/22 04:33:02;;;;;;;;;;;11.30;99.90;11.70;99622.00;;;;338350;28;83666;-94
2022/12/22 04:33:14;;;;;;;;;;;11.30;99.90;11.60;99616.00;;;;336583;28;83727;-95
2022/12/22 04:33:26;;;;;;;;;;;11.30;99.90;11.70;99622.00;;;;338062;28;82529;-95
2022/12/22 04:33:37;;;;;;;;;;;11.30;99.90;11.80;99619.00;;;;339318;28;82559;-96
2022/12/22 04:33:49;;;;;;;;;;;11.30;99.90;11.70;99628.00;;;;337626;28;83556;-95